sensor_id;sensor_type;location;lat;lon;timestamp;pressure;altitude;pressure_sealevel;temperature;humidity
41102;BME280;26845;50.190;19.178;2022-09-27T00:01:22;97441.52;;;9.82;85.40
41102;BME280;26845;50.190;19.178;2022-09-27T00:03:51;97439.98;;;9.84;85.43
41102;BME280;26845;50.190;19.178;2022-09-27T00:06:24;97433.88;;;9.85;85.40
41102;BME280;26845;50.190;19.178;2022-09-27T00:08:52;97437.91;;;9.87;85.45
41102;BME280;26845;50.190;19.178;2022-09-27T00:11:27;97433.74;;;9.87;85.40
41102;BME280;26845;50.190;19.178;2022-09-27T00:13:55;97427.97;;;9.86;85.39
41102;BME280;26845;50.190;19.178;2022-09-27T00:16:23;97420.34;;;9.89;85.53
41102;BME280;26845;50.190;19.178;2022-09-27T00:18:51;97413.52;;;9.87;85.47
41102;BME280;26845;50.190;19.178;2022-09-27T00:21:17;97415.70;;;9.87;85.59
41102;BME280;26845;50.190;19.178;2022-09-27T00:23:44;97416.98;;;9.90;85.65
41102;BME280;26845;50.190;19.178;2022-09-27T00:26:11;97410.30;;;9.91;85.58
41102;BME280;26845;50.190;19.178;2022-09-27T00:28:39;97408.33;;;9.91;85.42
41102;BME280;26845;50.190;19.178;2022-09-27T00:31:22;97405.66;;;9.89;85.45
41102;BME280;26845;50.190;19.178;2022-09-27T00:33:56;97402.30;;;9.89;85.30
41102;BME280;26845;50.190;19.178;2022-09-27T00:36:24;97401.97;;;9.85;85.50
41102;BME280;26845;50.190;19.178;2022-09-27T00:38:52;97398.03;;;9.86;85.58
41102;BME280;26845;50.190;19.178;2022-09-27T00:41:32;97399.64;;;9.87;85.59
41102;BME280;26845;50.190;19.178;2022-09-27T00:44:01;97394.45;;;9.85;85.42
41102;BME280;26845;50.190;19.178;2022-09-27T00:51:48;97384.27;;;9.83;85.62
41102;BME280;26845;50.190;19.178;2022-09-27T00:54:17;97384.84;;;9.83;85.52
41102;BME280;26845;50.190;19.178;2022-09-27T00:56:45;97384.05;;;9.82;85.57
41102;BME280;26845;50.190;19.178;2022-09-27T00:59:16;97373.06;;;9.80;85.62
41102;BME280;26845;50.190;19.178;2022-09-27T01:01:45;97369.59;;;9.77;85.57
41102;BME280;26845;50.190;19.178;2022-09-27T01:04:12;97366.34;;;9.75;85.60
41102;BME280;26845;50.190;19.178;2022-09-27T01:06:43;97369.13;;;9.75;85.70
41102;BME280;26845;50.190;19.178;2022-09-27T01:09:09;97365.43;;;9.77;85.76
41102;BME280;26845;50.190;19.178;2022-09-27T01:36:51;97323.92;;;9.80;86.22
41102;BME280;26845;50.190;19.178;2022-09-27T01:39:36;97319.75;;;9.80;86.25
41102;BME280;26845;50.190;19.178;2022-09-27T01:42:10;97313.88;;;9.82;86.20
41102;BME280;26845;50.190;19.178;2022-09-27T01:44:57;97308.77;;;9.78;86.26
41102;BME280;26845;50.190;19.178;2022-09-27T01:47:28;97312.36;;;9.72;86.30
41102;BME280;26845;50.190;19.178;2022-09-27T01:50:18;97313.16;;;9.73;86.57
41102;BME280;26845;50.190;19.178;2022-09-27T01:52:48;97305.31;;;9.75;86.73
41102;BME280;26845;50.190;19.178;2022-09-27T01:55:20;97300.81;;;9.76;86.70
41102;BME280;26845;50.190;19.178;2022-09-27T01:57:56;97306.36;;;9.76;86.61
41102;BME280;26845;50.190;19.178;2022-09-27T02:00:24;97296.28;;;9.78;86.82
41102;BME280;26845;50.190;19.178;2022-09-27T02:02:55;97296.75;;;9.80;86.78
41102;BME280;26845;50.190;19.178;2022-09-27T02:05:25;97292.91;;;9.84;86.92
41102;BME280;26845;50.190;19.178;2022-09-27T02:10:24;97290.84;;;9.81;86.66
41102;BME280;26845;50.190;19.178;2022-09-27T02:13:01;97288.75;;;9.84;86.95
41102;BME280;26845;50.190;19.178;2022-09-27T02:15:34;97287.62;;;9.85;86.86
41102;BME280;26845;50.190;19.178;2022-09-27T02:18:07;97283.34;;;9.88;86.85
41102;BME280;26845;50.190;19.178;2022-09-27T02:20:37;97281.36;;;9.88;86.83
41102;BME280;26845;50.190;19.178;2022-09-27T02:25:54;97272.36;;;9.85;86.50
41102;BME280;26845;50.190;19.178;2022-09-27T02:28:31;97268.54;;;9.78;86.51
41102;BME280;26845;50.190;19.178;2022-09-27T02:31:02;97267.63;;;9.74;86.60
41102;BME280;26845;50.190;19.178;2022-09-27T02:33:31;97268.09;;;9.69;86.48
41102;BME280;26845;50.190;19.178;2022-09-27T02:36:02;97261.73;;;9.69;86.54
41102;BME280;26845;50.190;19.178;2022-09-27T02:38:28;97259.30;;;9.67;86.54
41102;BME280;26845;50.190;19.178;2022-09-27T02:40:55;97252.94;;;9.67;86.44
41102;BME280;26845;50.190;19.178;2022-09-27T02:43:22;97252.72;;;9.66;86.41
41102;BME280;26845;50.190;19.178;2022-09-27T02:56:59;97259.33;;;9.37;85.61
41102;BME280;26845;50.190;19.178;2022-09-27T03:00:14;97253.06;;;9.09;85.34
41102;BME280;26845;50.190;19.178;2022-09-27T03:04:44;97249.23;;;9.01;86.36
41102;BME280;26845;50.190;19.178;2022-09-27T03:07:13;97241.17;;;9.03;86.49
41102;BME280;26845;50.190;19.178;2022-09-27T03:09:44;97235.05;;;9.03;86.47
41102;BME280;26845;50.190;19.178;2022-09-27T03:12:13;97232.28;;;9.03;86.48
41102;BME280;26845;50.190;19.178;2022-09-27T03:14:41;97238.05;;;9.04;86.42
41102;BME280;26845;50.190;19.178;2022-09-27T03:17:08;97237.23;;;9.04;86.06
41102;BME280;26845;50.190;19.178;2022-09-27T03:19:34;97238.16;;;9.01;86.14
41102;BME280;26845;50.190;19.178;2022-09-27T03:22:00;97241.28;;;9.00;85.92
41102;BME280;26845;50.190;19.178;2022-09-27T03:24:27;97236.43;;;8.91;85.61
41102;BME280;26845;50.190;19.178;2022-09-27T03:26:53;97232.70;;;8.81;85.70
41102;BME280;26845;50.190;19.178;2022-09-27T03:29:20;97233.39;;;8.77;86.05
41102;BME280;26845;50.190;19.178;2022-09-27T03:31:46;97236.06;;;8.80;86.27
41102;BME280;26845;50.190;19.178;2022-09-27T03:34:13;97227.85;;;8.77;86.07
41102;BME280;26845;50.190;19.178;2022-09-27T03:36:39;97225.99;;;8.75;86.14
41102;BME280;26845;50.190;19.178;2022-09-27T03:39:06;97226.47;;;8.77;86.25
41102;BME280;26845;50.190;19.178;2022-09-27T03:41:32;97231.09;;;8.80;86.24
41102;BME280;26845;50.190;19.178;2022-09-27T03:43:59;97223.81;;;8.81;86.28
41102;BME280;26845;50.190;19.178;2022-09-27T03:46:25;97219.87;;;8.82;86.20
41102;BME280;26845;50.190;19.178;2022-09-27T03:48:55;97224.72;;;8.79;86.05
41102;BME280;26845;50.190;19.178;2022-09-27T03:51:21;97230.56;;;8.59;85.30
41102;BME280;26845;50.190;19.178;2022-09-27T03:53:48;97232.56;;;8.38;85.51
41102;BME280;26845;50.190;19.178;2022-09-27T03:56:14;97226.32;;;8.34;86.30
41102;BME280;26845;50.190;19.178;2022-09-27T03:58:41;97220.36;;;8.39;86.64
41102;BME280;26845;50.190;19.178;2022-09-27T04:01:07;97217.48;;;8.41;86.63
41102;BME280;26845;50.190;19.178;2022-09-27T04:03:34;97220.38;;;8.45;86.74
41102;BME280;26845;50.190;19.178;2022-09-27T04:06:02;97220.74;;;8.49;86.73
41102;BME280;26845;50.190;19.178;2022-09-27T04:08:29;97214.15;;;8.48;86.64
41102;BME280;26845;50.190;19.178;2022-09-27T04:10:55;97219.14;;;8.48;86.78
41102;BME280;26845;50.190;19.178;2022-09-27T04:13:22;97211.86;;;8.50;86.85
41102;BME280;26845;50.190;19.178;2022-09-27T04:15:49;97208.98;;;8.52;86.99
41102;BME280;26845;50.190;19.178;2022-09-27T04:18:15;97205.75;;;8.56;87.08
41102;BME280;26845;50.190;19.178;2022-09-27T04:20:42;97205.89;;;8.60;87.05
41102;BME280;26845;50.190;19.178;2022-09-27T04:23:08;97200.47;;;8.64;87.04
41102;BME280;26845;50.190;19.178;2022-09-27T04:25:35;97205.32;;;8.67;86.95
41102;BME280;26845;50.190;19.178;2022-09-27T04:28:02;97201.75;;;8.66;86.92
41102;BME280;26845;50.190;19.178;2022-09-27T04:30:28;97207.77;;;8.68;86.94
41102;BME280;26845;50.190;19.178;2022-09-27T04:32:54;97207.18;;;8.69;86.70
41102;BME280;26845;50.190;19.178;2022-09-27T04:35:21;97205.89;;;8.60;86.47
41102;BME280;26845;50.190;19.178;2022-09-27T04:38:06;97200.58;;;8.61;86.85
41102;BME280;26845;50.190;19.178;2022-09-27T04:40:33;97200.58;;;8.61;86.84
41102;BME280;26845;50.190;19.178;2022-09-27T04:43:00;97198.39;;;8.61;86.78
41102;BME280;26845;50.190;19.178;2022-09-27T04:45:29;97197.59;;;8.60;86.86
41102;BME280;26845;50.190;19.178;2022-09-27T04:47:55;97196.78;;;8.60;86.69
41102;BME280;26845;50.190;19.178;2022-09-27T04:50:22;97196.31;;;8.58;86.69
41102;BME280;26845;50.190;19.178;2022-09-27T04:52:53;97192.84;;;8.54;86.63
41102;BME280;26845;50.190;19.178;2022-09-27T04:55:18;97191.19;;;8.47;86.43
41102;BME280;26845;50.190;19.178;2022-09-27T04:57:49;97190.70;;;8.39;86.45
41102;BME280;26845;50.190;19.178;2022-09-27T05:00:15;97186.63;;;8.37;86.50
41102;BME280;26845;50.190;19.178;2022-09-27T05:02:43;97191.14;;;8.35;86.53
41102;BME280;26845;50.190;19.178;2022-09-27T05:05:10;97182.03;;;8.34;86.59
41102;BME280;26845;50.190;19.178;2022-09-27T05:07:37;97181.23;;;8.34;86.49
41102;BME280;26845;50.190;19.178;2022-09-27T05:10:05;97177.88;;;8.34;86.64
41102;BME280;26845;50.190;19.178;2022-09-27T05:12:33;97185.83;;;8.36;86.46
41102;BME280;26845;50.190;19.178;2022-09-27T05:15:00;97176.14;;;8.36;86.49
41102;BME280;26845;50.190;19.178;2022-09-27T05:17:26;97180.55;;;8.37;86.35
41102;BME280;26845;50.190;19.178;2022-09-27T05:19:53;97171.66;;;8.38;86.52
41102;BME280;26845;50.190;19.178;2022-09-27T05:22:20;97170.31;;;8.44;87.24
41102;BME280;26845;50.190;19.178;2022-09-27T05:24:46;97167.88;;;8.42;86.57
41102;BME280;26845;50.190;19.178;2022-09-27T05:27:13;97162.55;;;8.37;86.53
41102;BME280;26845;50.190;19.178;2022-09-27T05:29:43;97168.19;;;8.34;86.46
41102;BME280;26845;50.190;19.178;2022-09-27T05:32:10;97173.03;;;8.31;86.46
41102;BME280;26845;50.190;19.178;2022-09-27T05:34:38;97173.46;;;8.27;86.30
41102;BME280;26845;50.190;19.178;2022-09-27T05:37:04;97164.58;;;8.28;86.67
41102;BME280;26845;50.190;19.178;2022-09-27T05:39:31;97157.80;;;8.31;86.84
41102;BME280;26845;50.190;19.178;2022-09-27T05:41:57;97163.34;;;8.31;86.89
41102;BME280;26845;50.190;19.178;2022-09-27T05:44:24;97159.53;;;8.36;87.04
41102;BME280;26845;50.190;19.178;2022-09-27T05:46:51;97165.47;;;8.41;87.04
41102;BME280;26845;50.190;19.178;2022-09-27T05:49:17;97157.23;;;8.38;87.10
41102;BME280;26845;50.190;19.178;2022-09-27T05:51:45;97160.41;;;8.43;87.32
41102;BME280;26845;50.190;19.178;2022-09-27T05:54:12;97170.68;;;8.48;87.36
41102;BME280;26845;50.190;19.178;2022-09-27T05:56:39;97166.53;;;8.54;87.42
41102;BME280;26845;50.190;19.178;2022-09-27T05:59:05;97164.36;;;8.60;87.49
41102;BME280;26845;50.190;19.178;2022-09-27T06:01:33;97164.94;;;8.66;87.72
41102;BME280;26845;50.190;19.178;2022-09-27T06:04:01;97158.02;;;8.72;87.74
41102;BME280;26845;50.190;19.178;2022-09-27T06:06:28;97155.14;;;8.81;87.76
41102;BME280;26845;50.190;19.178;2022-09-27T06:08:55;97155.14;;;8.81;87.54
41102;BME280;26845;50.190;19.178;2022-09-27T06:11:21;97160.57;;;8.83;87.72
41102;BME280;26845;50.190;19.178;2022-09-27T06:13:48;97169.21;;;8.88;88.18
41102;BME280;26845;50.190;19.178;2022-09-27T06:16:15;97165.30;;;8.95;88.25
41102;BME280;26845;50.190;19.178;2022-09-27T06:18:41;97168.55;;;9.03;88.46
41102;BME280;26845;50.190;19.178;2022-09-27T06:21:10;97171.30;;;9.15;88.77
41102;BME280;26845;50.190;19.178;2022-09-27T06:23:38;97165.52;;;9.27;88.85
41102;BME280;26845;50.190;19.178;2022-09-27T06:26:05;97168.52;;;9.40;88.97
41102;BME280;26845;50.190;19.178;2022-09-27T06:28:33;97162.48;;;9.50;89.12
41102;BME280;26845;50.190;19.178;2022-09-27T06:31:00;97164.08;;;9.63;89.16
41102;BME280;26845;50.190;19.178;2022-09-27T06:33:27;97158.05;;;9.74;89.46
41102;BME280;26845;50.190;19.178;2022-09-27T06:35:54;97157.63;;;9.87;89.63
41102;BME280;26845;50.190;19.178;2022-09-27T06:38:20;97164.09;;;9.98;89.54
41102;BME280;26845;50.190;19.178;2022-09-27T06:40:48;97163.47;;;10.10;89.84
41102;BME280;26845;50.190;19.178;2022-09-27T06:43:16;97156.47;;;10.23;89.84
41102;BME280;26845;50.190;19.178;2022-09-27T06:45:45;97158.06;;;10.36;90.09
41102;BME280;26845;50.190;19.178;2022-09-27T06:48:12;97149.39;;;10.53;90.30
41102;BME280;26845;50.190;19.178;2022-09-27T06:50:40;97138.65;;;10.68;90.25
41102;BME280;26845;50.190;19.178;2022-09-27T06:55:21;97139.70;;;10.95;89.87
41102;BME280;26845;50.190;19.178;2022-09-27T06:57:47;97135.40;;;10.97;89.77
41102;BME280;26845;50.190;19.178;2022-09-27T07:00:31;97136.13;;;11.10;89.87
41102;BME280;26845;50.190;19.178;2022-09-27T07:02:57;97125.89;;;11.24;90.18
41102;BME280;26845;50.190;19.178;2022-09-27T07:05:28;97127.61;;;11.38;90.30
41102;BME280;26845;50.190;19.178;2022-09-27T07:07:57;97123.92;;;11.50;90.32
41102;BME280;26845;50.190;19.178;2022-09-27T07:10:25;97119.23;;;11.64;90.39
41102;BME280;26845;50.190;19.178;2022-09-27T07:12:52;97116.11;;;11.85;90.76
41102;BME280;26845;50.190;19.178;2022-09-27T07:15:26;97115.18;;;11.97;89.90
41102;BME280;26845;50.190;19.178;2022-09-27T07:17:56;97116.55;;;12.06;89.98
41102;BME280;26845;50.190;19.178;2022-09-27T07:20:25;97108.48;;;12.21;89.93
41102;BME280;26845;50.190;19.178;2022-09-27T07:22:51;97117.05;;;12.41;90.12
41102;BME280;26845;50.190;19.178;2022-09-27T07:25:18;97114.78;;;12.60;89.84
41102;BME280;26845;50.190;19.178;2022-09-27T07:27:45;97119.59;;;12.73;89.63
41102;BME280;26845;50.190;19.178;2022-09-27T07:30:12;97124.81;;;12.88;89.64
41102;BME280;26845;50.190;19.178;2022-09-27T07:32:39;97120.61;;;13.11;89.75
41102;BME280;26845;50.190;19.178;2022-09-27T07:35:09;97126.13;;;13.30;89.44
41102;BME280;26845;50.190;19.178;2022-09-27T07:37:36;97126.97;;;13.47;89.63
41102;BME280;26845;50.190;19.178;2022-09-27T07:40:05;97122.27;;;13.68;89.44
41102;BME280;26845;50.190;19.178;2022-09-27T07:42:34;97118.91;;;13.86;89.25
41102;BME280;26845;50.190;19.178;2022-09-27T07:45:06;97121.71;;;14.03;89.09
41102;BME280;26845;50.190;19.178;2022-09-27T07:47:33;97118.92;;;14.20;89.45
41102;BME280;26845;50.190;19.178;2022-09-27T07:50:00;97110.79;;;14.41;89.37
41102;BME280;26845;50.190;19.178;2022-09-27T07:52:26;97110.34;;;14.52;88.55
41102;BME280;26845;50.190;19.178;2022-09-27T07:54:51;97104.71;;;14.69;88.70
41102;BME280;26845;50.190;19.178;2022-09-27T07:57:20;97111.42;;;14.85;87.97
41102;BME280;26845;50.190;19.178;2022-09-27T07:59:48;97108.88;;;14.90;87.20
41102;BME280;26845;50.190;19.178;2022-09-27T08:02:16;97097.38;;;15.02;87.24
41102;BME280;26845;50.190;19.178;2022-09-27T08:04:42;97093.34;;;15.20;87.40
41102;BME280;26845;50.190;19.178;2022-09-27T08:07:08;97095.31;;;15.47;87.52
41102;BME280;26845;50.190;19.178;2022-09-27T08:09:35;97091.84;;;15.68;86.99
41102;BME280;26845;50.190;19.178;2022-09-27T08:12:01;97094.57;;;15.88;86.61
41102;BME280;26845;50.190;19.178;2022-09-27T08:14:29;97096.42;;;16.05;86.20
41102;BME280;26845;50.190;19.178;2022-09-27T08:16:55;97094.27;;;16.22;86.61
41102;BME280;26845;50.190;19.178;2022-09-27T08:19:21;97095.94;;;16.37;86.12
41102;BME280;26845;50.190;19.178;2022-09-27T08:21:47;97091.56;;;16.58;84.78
41102;BME280;26845;50.190;19.178;2022-09-27T08:24:13;97091.40;;;16.71;85.55
41102;BME280;26845;50.190;19.178;2022-09-27T08:26:39;97091.42;;;16.93;84.59
41102;BME280;26845;50.190;19.178;2022-09-27T08:29:07;97090.84;;;17.11;84.14
41102;BME280;26845;50.190;19.178;2022-09-27T08:31:36;97089.02;;;17.23;83.24
41102;BME280;26845;50.190;19.178;2022-09-27T08:34:05;97088.41;;;17.42;84.48
41102;BME280;26845;50.190;19.178;2022-09-27T08:36:33;97085.36;;;17.55;84.23
41102;BME280;26845;50.190;19.178;2022-09-27T08:39:03;97083.54;;;17.60;82.75
41102;BME280;26845;50.190;19.178;2022-09-27T08:41:46;97086.11;;;17.70;83.17
41102;BME280;26845;50.190;19.178;2022-09-27T08:44:46;97074.27;;;17.74;82.53
41102;BME280;26845;50.190;19.178;2022-09-27T08:47:27;97076.48;;;17.74;81.92
41102;BME280;26845;50.190;19.178;2022-09-27T08:53:05;97071.92;;;17.47;80.42
41102;BME280;26845;50.190;19.178;2022-09-27T08:55:52;97067.77;;;17.26;79.68
41102;BME280;26845;50.190;19.178;2022-09-27T08:58:42;97069.58;;;17.06;80.43
41102;BME280;26845;50.190;19.178;2022-09-27T09:01:14;97064.96;;;17.04;80.58
41102;BME280;26845;50.190;19.178;2022-09-27T09:03:56;97055.36;;;17.05;80.42
41102;BME280;26845;50.190;19.178;2022-09-27T09:12:26;97056.97;;;16.99;79.94
41102;BME280;26845;50.190;19.178;2022-09-27T09:18:14;97044.48;;;17.40;80.32
41102;BME280;26845;50.190;19.178;2022-09-27T09:23:51;97045.80;;;17.68;80.11
41102;BME280;26845;50.190;19.178;2022-09-27T09:29:16;97039.59;;;18.16;78.52
41102;BME280;26845;50.190;19.178;2022-09-27T09:35:10;97029.59;;;18.45;77.53
41102;BME280;26845;50.190;19.178;2022-09-27T09:37:46;97024.50;;;18.52;77.28
41102;BME280;26845;50.190;19.178;2022-09-27T09:40:25;97018.84;;;18.55;76.89
41102;BME280;26845;50.190;19.178;2022-09-27T09:45:55;97003.42;;;18.81;77.21
41102;BME280;26845;50.190;19.178;2022-09-27T09:51:05;96995.95;;;19.05;75.99
41102;BME280;26845;50.190;19.178;2022-09-27T09:53:51;96988.87;;;19.09;76.02
41102;BME280;26845;50.190;19.178;2022-09-27T09:56:26;96994.02;;;18.99;75.14
41102;BME280;26845;50.190;19.178;2022-09-27T09:59:00;96988.05;;;18.90;75.31
41102;BME280;26845;50.190;19.178;2022-09-27T10:01:33;96988.00;;;18.71;74.62
41102;BME280;26845;50.190;19.178;2022-09-27T10:04:23;96994.17;;;18.51;73.70
41102;BME280;26845;50.190;19.178;2022-09-27T10:06:52;96990.64;;;18.40;74.42
41102;BME280;26845;50.190;19.178;2022-09-27T10:09:23;96989.87;;;18.32;74.17
41102;BME280;26845;50.190;19.178;2022-09-27T10:11:50;96990.92;;;18.30;74.65
41102;BME280;26845;50.190;19.178;2022-09-27T10:14:19;96986.82;;;18.38;74.98
41102;BME280;26845;50.190;19.178;2022-09-27T10:16:48;96988.66;;;18.37;74.21
41102;BME280;26845;50.190;19.178;2022-09-27T10:19:24;96985.30;;;18.30;73.93
41102;BME280;26845;50.190;19.178;2022-09-27T10:22:31;96987.53;;;18.27;74.03
41102;BME280;26845;50.190;19.178;2022-09-27T10:25:01;96983.16;;;18.19;73.56
41102;BME280;26845;50.190;19.178;2022-09-27T10:27:49;96978.12;;;18.18;74.08
41102;BME280;26845;50.190;19.178;2022-09-27T10:30:32;96964.57;;;18.32;73.48
41102;BME280;26845;50.190;19.178;2022-09-27T10:33:05;96963.77;;;18.58;73.59
41102;BME280;26845;50.190;19.178;2022-09-27T10:35:45;96963.06;;;18.95;73.11
41102;BME280;26845;50.190;19.178;2022-09-27T10:38:23;96956.50;;;19.28;73.10
41102;BME280;26845;50.190;19.178;2022-09-27T10:40:53;96953.30;;;19.60;72.20
41102;BME280;26845;50.190;19.178;2022-09-27T10:50:01;96951.31;;;20.07;69.89
41102;BME280;26845;50.190;19.178;2022-09-27T10:51:50;96947.26;;;20.08;70.41
41102;BME280;26845;50.190;19.178;2022-09-27T10:54:21;96943.29;;;20.17;70.88
41102;BME280;26845;50.190;19.178;2022-09-27T10:57:03;96941.31;;;20.29;70.15
41102;BME280;26845;50.190;19.178;2022-09-27T10:59:26;96948.80;;;20.39;69.93
41102;BME280;26845;50.190;19.178;2022-09-27T11:01:55;96948.70;;;20.47;69.24
41102;BME280;26845;50.190;19.178;2022-09-27T11:04:35;96947.52;;;20.44;69.29
41102;BME280;26845;50.190;19.178;2022-09-27T11:07:16;96937.34;;;20.50;69.85
41102;BME280;26845;50.190;19.178;2022-09-27T11:09:51;96932.21;;;20.69;69.91
41102;BME280;26845;50.190;19.178;2022-09-27T11:12:20;96933.69;;;20.65;68.32
41102;BME280;26845;50.190;19.178;2022-09-27T11:15:13;96926.40;;;20.56;66.90
41102;BME280;26845;50.190;19.178;2022-09-27T11:17:57;96922.48;;;20.46;68.45
41102;BME280;26845;50.190;19.178;2022-09-27T11:20:40;96928.66;;;20.37;66.95
41102;BME280;26845;50.190;19.178;2022-09-27T11:25:57;96930.37;;;19.92;67.15
41102;BME280;26845;50.190;19.178;2022-09-27T11:29:12;96926.79;;;19.88;67.49
41102;BME280;26845;50.190;19.178;2022-09-27T11:46:29;96916.56;;;19.37;65.60
41102;BME280;26845;50.190;19.178;2022-09-27T11:52:08;96904.97;;;19.12;66.48
41102;BME280;26845;50.190;19.178;2022-09-27T11:55:00;96909.74;;;19.00;66.62
41102;BME280;26845;50.190;19.178;2022-09-27T12:09:40;96896.72;;;18.75;66.25
41102;BME280;26845;50.190;19.178;2022-09-27T12:12:18;96895.99;;;18.64;66.23
41102;BME280;26845;50.190;19.178;2022-09-27T12:14:59;96896.73;;;18.53;66.58
41102;BME280;26845;50.190;19.178;2022-09-27T12:17:35;96892.17;;;18.43;66.37
41102;BME280;26845;50.190;19.178;2022-09-27T12:20:05;96890.92;;;18.26;66.66
41102;BME280;26845;50.190;19.178;2022-09-27T12:22:53;96890.20;;;18.14;66.81
41102;BME280;26845;50.190;19.178;2022-09-27T12:25:24;96899.50;;;18.08;67.31
41102;BME280;26845;50.190;19.178;2022-09-27T12:27:54;96897.16;;;17.95;66.91
41102;BME280;26845;50.190;19.178;2022-09-27T12:30:23;96894.79;;;17.53;66.69
41102;BME280;26845;50.190;19.178;2022-09-27T12:33:00;96892.34;;;17.15;67.78
41102;BME280;26845;50.190;19.178;2022-09-27T12:35:34;96886.80;;;16.97;69.25
41102;BME280;26845;50.190;19.178;2022-09-27T12:38:16;96887.39;;;16.93;69.73
41102;BME280;26845;50.190;19.178;2022-09-27T12:40:50;96882.20;;;16.92;70.08
41102;BME280;26845;50.190;19.178;2022-09-27T12:43:22;96879.21;;;16.91;70.59
41102;BME280;26845;50.190;19.178;2022-09-27T12:52:05;96870.18;;;16.73;71.01
41102;BME280;26845;50.190;19.178;2022-09-27T13:00:19;96878.84;;;15.81;72.51
41102;BME280;26845;50.190;19.178;2022-09-27T13:25:53;96885.22;;;13.69;78.15
41102;BME280;26845;50.190;19.178;2022-09-27T13:28:33;96883.99;;;13.67;77.56
41102;BME280;26845;50.190;19.178;2022-09-27T13:33:46;96883.87;;;13.77;77.31
41102;BME280;26845;50.190;19.178;2022-09-27T13:39:00;96885.20;;;13.90;77.98
41102;BME280;26845;50.190;19.178;2022-09-27T13:47:00;96880.45;;;14.18;79.01
41102;BME280;26845;50.190;19.178;2022-09-27T13:49:39;96882.38;;;14.34;79.41
41102;BME280;26845;50.190;19.178;2022-09-27T13:55:04;96888.20;;;14.43;79.45
41102;BME280;26845;50.190;19.178;2022-09-27T13:57:58;96885.27;;;14.49;79.86
41102;BME280;26845;50.190;19.178;2022-09-27T14:00:40;96888.53;;;14.54;79.79
41102;BME280;26845;50.190;19.178;2022-09-27T14:03:35;96882.16;;;14.57;80.01
41102;BME280;26845;50.190;19.178;2022-09-27T14:06:05;96890.81;;;14.69;80.60
41102;BME280;26845;50.190;19.178;2022-09-27T14:08:50;96887.02;;;14.71;80.28
41102;BME280;26845;50.190;19.178;2022-09-27T14:11:39;96889.85;;;14.75;80.89
41102;BME280;26845;50.190;19.178;2022-09-27T14:14:16;96886.47;;;14.79;80.75
41102;BME280;26845;50.190;19.178;2022-09-27T14:16:45;96883.12;;;14.87;80.83
41102;BME280;26845;50.190;19.178;2022-09-27T14:19:23;96887.12;;;14.89;80.77
41102;BME280;26845;50.190;19.178;2022-09-27T14:21:51;96890.73;;;14.93;80.92
41102;BME280;26845;50.190;19.178;2022-09-27T14:24:42;96890.10;;;14.83;80.98
41102;BME280;26845;50.190;19.178;2022-09-27T14:27:18;96889.63;;;14.74;81.33
41102;BME280;26845;50.190;19.178;2022-09-27T14:29:56;96891.78;;;14.64;81.45
41102;BME280;26845;50.190;19.178;2022-09-27T14:32:28;96901.55;;;14.60;81.95
41102;BME280;26845;50.190;19.178;2022-09-27T14:38:06;96931.66;;;14.09;82.33
41102;BME280;26845;50.190;19.178;2022-09-27T14:40:43;96958.64;;;13.40;85.53
41102;BME280;26845;50.190;19.178;2022-09-27T14:43:25;96965.19;;;12.94;86.08
41102;BME280;26845;50.190;19.178;2022-09-27T14:46:01;96965.95;;;12.38;83.99
41102;BME280;26845;50.190;19.178;2022-09-27T14:48:33;96985.19;;;12.01;85.67
41102;BME280;26845;50.190;19.178;2022-09-27T14:51:03;96973.83;;;11.67;85.58
41102;BME280;26845;50.190;19.178;2022-09-27T14:53:36;96979.55;;;11.45;86.36
41102;BME280;26845;50.190;19.178;2022-09-27T14:56:18;96981.66;;;11.32;86.19
41102;BME280;26845;50.190;19.178;2022-09-27T14:58:49;96989.07;;;11.24;85.65
41102;BME280;26845;50.190;19.178;2022-09-27T15:01:21;96986.44;;;11.22;86.98
41102;BME280;26845;50.190;19.178;2022-09-27T15:03:48;96983.34;;;11.17;86.41
41102;BME280;26845;50.190;19.178;2022-09-27T15:06:15;96979.17;;;11.17;87.90
41102;BME280;26845;50.190;19.178;2022-09-27T15:08:41;96979.31;;;11.15;86.96
41102;BME280;26845;50.190;19.178;2022-09-27T15:11:10;96975.73;;;11.14;86.64
41102;BME280;26845;50.190;19.178;2022-09-27T15:13:36;96966.87;;;11.18;86.37
41102;BME280;26845;50.190;19.178;2022-09-27T15:16:16;96968.56;;;11.23;86.16
41102;BME280;26845;50.190;19.178;2022-09-27T15:18:43;96969.67;;;11.28;87.26
41102;BME280;26845;50.190;19.178;2022-09-27T15:21:26;96965.50;;;11.28;86.25
41102;BME280;26845;50.190;19.178;2022-09-27T15:23:43;96966.36;;;11.32;86.18
41102;BME280;26845;50.190;19.178;2022-09-27T15:26:16;96972.15;;;11.43;86.26
41102;BME280;26845;50.190;19.178;2022-09-27T15:28:50;96972.06;;;11.49;86.41
41102;BME280;26845;50.190;19.178;2022-09-27T15:31:18;96977.04;;;11.49;86.32
41102;BME280;26845;50.190;19.178;2022-09-27T15:33:59;96972.37;;;11.54;86.57
41102;BME280;26845;50.190;19.178;2022-09-27T15:39:34;96969.14;;;11.61;86.47
41102;BME280;26845;50.190;19.178;2022-09-27T15:42:10;96969.66;;;11.67;86.53
41102;BME280;26845;50.190;19.178;2022-09-27T15:44:50;96962.40;;;11.62;86.40
41102;BME280;26845;50.190;19.178;2022-09-27T15:52:55;96960.71;;;11.67;86.66
41102;BME280;26845;50.190;19.178;2022-09-27T15:55:28;96962.16;;;11.71;86.74
41102;BME280;26845;50.190;19.178;2022-09-27T15:57:57;96967.58;;;11.74;86.93
41102;BME280;26845;50.190;19.178;2022-09-27T16:00:27;96971.81;;;11.97;87.36
41102;BME280;26845;50.190;19.178;2022-09-27T16:02:53;96983.74;;;11.97;86.92
41102;BME280;26845;50.190;19.178;2022-09-27T16:05:20;96980.69;;;11.92;86.79
41102;BME280;26845;50.190;19.178;2022-09-27T16:07:48;96979.36;;;11.96;86.88
41102;BME280;26845;50.190;19.178;2022-09-27T16:10:20;96986.83;;;11.92;86.75
41102;BME280;26845;50.190;19.178;2022-09-27T16:12:47;96984.78;;;11.89;86.90
41102;BME280;26845;50.190;19.178;2022-09-27T16:15:15;96985.44;;;11.82;87.06